Smit Orleans — CFN5087 — position and weather

sailwx.info

Track history (hours):
 
Tides and Currents Weather Stations Pressure Air Temp Water Temp Dewpoint Dewpoint Depression Visibility Wind Speed Wind Dir Waves Ship Positions

Smit Orleans

Last reported at 2015-Mar-30 19:33 UTC. Time now 2015-Mar-30 20:05 UTC.
Position N 49°17' W 123°04'.

Length 29 m; draft 5.1 m.

Type: . MMSI: 316012721.

Date/timePositionNaut miles runAvg speedWind from/ knotsBaromVisibWave heightAir tempDewpointWater temp
2015-Mar-30 19:33N 49°17' W 123°04'0 0.0
2015-Mar-30 18:33N 49°17' W 123°04'0 0.0
2015-Mar-30 17:33N 49°17' W 123°04'0 0.0
2015-Mar-30 16:33N 49°17' W 123°04'0 0.0
2015-Mar-30 15:33N 49°17' W 123°04'0 0.0
2015-Mar-30 14:33N 49°17' W 123°04'0 0.0
2015-Mar-30 13:33N 49°17' W 123°04'0 0.0
2015-Mar-30 12:33N 49°17' W 123°04'0 0.0
2015-Mar-30 11:33N 49°17' W 123°04'0 0.0
2015-Mar-30 10:33N 49°17' W 123°04'0 0.0
2015-Mar-30 09:33N 49°17' W 123°04'0 0.0
2015-Mar-30 08:33N 49°17' W 123°04'0 0.0
2015-Mar-30 07:33N 49°17' W 123°04'0 0.0
2015-Mar-30 06:33N 49°17' W 123°04'0 0.0
2015-Mar-30 05:33N 49°17' W 123°04'0 0.0
2015-Mar-30 04:33N 49°17' W 123°04'0 0.0
2015-Mar-30 03:33N 49°17' W 123°04'0 0.0
2015-Mar-30 02:33N 49°17' W 123°04'0 0.0
2015-Mar-30 01:33N 49°17' W 123°04'0 0.0
2015-Mar-30 00:33N 49°17' W 123°04'0 0.0
2015-Mar-29 23:33N 49°17' W 123°04'0 0.0
2015-Mar-29 22:33N 49°17' W 123°04'0 0.0
2015-Mar-29 21:33N 49°17' W 123°04'0 0.0
2015-Mar-29 20:33N 49°17' W 123°04'1 0.8
2015-Mar-29 19:33N 49°18' W 123°03'0 0.1
2015-Mar-29 18:33N 49°18' W 123°03'0 0.0
2015-Mar-29 17:33N 49°18' W 123°03'1 0.8
2015-Mar-29 16:33N 49°17' W 123°04'0 0.0
2015-Mar-29 15:34N 49°17' W 123°04'0 0.0
2015-Mar-29 14:33N 49°17' W 123°04'0 0.0
2015-Mar-29 13:33N 49°17' W 123°04'0 0.0
2015-Mar-29 12:33N 49°17' W 123°04'0 0.0
2015-Mar-29 11:33N 49°17' W 123°04'0 0.0
2015-Mar-29 10:33N 49°17' W 123°04'0 0.0
2015-Mar-29 09:33N 49°17' W 123°04'0 0.0
2015-Mar-29 08:33N 49°17' W 123°04'0 0.0
2015-Mar-29 07:33N 49°17' W 123°04'0 0.0
2015-Mar-29 06:33N 49°17' W 123°04'9 8.6
2015-Mar-29 05:33N 49°18' W 123°17'1312.7
2015-Mar-29 04:33N 49°05' W 123°20'1212.1
2015-Mar-29 03:33N 48°53' W 123°18'1110.8
2015-Mar-29 02:31N 48°42' W 123°16'1111.8
2015-Mar-29 01:33N 48°31' W 123°11'10 9.8
2015-Mar-29 00:33N 48°22' W 123°16'7 7.3
2015-Mar-28 23:33N 48°20' W 123°27'1010.4
2015-Mar-28 22:33N 48°25' W 123°13'1211.8
2015-Mar-28 21:33N 48°36' W 123°14'9 9.2
2015-Mar-28 20:33N 48°45' W 123°08'7 7.3
2015-Mar-28 19:33N 48°52' W 123°05'9 8.5
2015-Mar-28 18:33N 48°58' W 123°14'1212.1
2015-Mar-28 17:33N 49°09' W 123°19'1111.2
2015-Mar-28 16:33N 49°19' W 123°10'6 5.9
2015-Mar-28 15:33N 49°18' W 123°01'3 2.9
2015-Mar-28 14:34N 49°18' W 122°57'1 0.7
2015-Mar-28 13:33N 49°18' W 122°58'4 3.9
2015-Mar-28 12:33N 49°17' W 123°04'0 0.0
2015-Mar-28 11:34N 49°17' W 123°04'0 0.0
2015-Mar-28 10:33N 49°17' W 123°04'0 0.0
2015-Mar-28 09:33N 49°17' W 123°04'0 0.0
2015-Mar-28 08:33N 49°17' W 123°04'0 0.0
2015-Mar-28 07:34N 49°17' W 123°04'0 0.0
2015-Mar-28 06:33N 49°17' W 123°04'0 0.0
2015-Mar-28 05:34N 49°17' W 123°04'0 0.0
2015-Mar-28 04:34N 49°17' W 123°04'0 0.0
2015-Mar-28 03:33N 49°17' W 123°04'0 0.0
2015-Mar-28 02:33N 49°17' W 123°04'0 0.0
2015-Mar-28 01:33N 49°17' W 123°04'0 0.0
2015-Mar-28 00:33N 49°17' W 123°04'1 1.1
2015-Mar-27 23:33N 49°18' W 123°02'1 1.1
2015-Mar-27 22:33N 49°18' W 123°04'2 2.2
2015-Mar-27 21:33N 49°18' W 123°07'0 0.0
2015-Mar-27 20:33N 49°18' W 123°07'0 0.0
2015-Mar-27 19:33N 49°18' W 123°07'1 1.2
2015-Mar-27 18:33N 49°18' W 123°05'2 1.5
2015-Mar-27 17:33N 49°18' W 123°07'0 0.0
2015-Mar-27 16:33N 49°18' W 123°07'0 0.0
2015-Mar-27 15:33N 49°18' W 123°07'2 2.4
2015-Mar-27 14:33N 49°17' W 123°04'0 0.0
2015-Mar-27 13:33N 49°17' W 123°04'0 0.0
2015-Mar-27 12:33N 49°17' W 123°04'0 0.0
2015-Mar-27 11:33N 49°17' W 123°04'0 0.0
2015-Mar-27 10:33N 49°17' W 123°04'0 0.0
2015-Mar-27 09:33N 49°17' W 123°04'0 0.0
2015-Mar-27 08:33N 49°17' W 123°04'0 0.0
2015-Mar-27 07:33N 49°17' W 123°04'0 0.0
2015-Mar-27 06:33N 49°17' W 123°04'0 0.0
2015-Mar-27 05:33N 49°17' W 123°04'0 0.0
2015-Mar-27 04:34N 49°17' W 123°04'0 0.0
2015-Mar-27 03:33N 49°17' W 123°04'0 0.0
2015-Mar-27 02:33N 49°17' W 123°04'1 0.8
2015-Mar-27 01:33N 49°18' W 123°03'0 0.3
2015-Mar-27 00:33N 49°18' W 123°04'1 0.7
2015-Mar-26 23:33N 49°17' W 123°04'0 0.0
2015-Mar-26 22:33N 49°17' W 123°04'0 0.5
2015-Mar-26 21:33N 49°17' W 123°04'0 0.5
2015-Mar-26 20:33N 49°17' W 123°04'0 0.0
2015-Mar-26 19:33N 49°17' W 123°04'0 0.0
2015-Mar-26 18:33N 49°17' W 123°04'0 0.0
2015-Mar-26 17:33N 49°17' W 123°04'0 0.0
2015-Mar-26 16:34N 49°17' W 123°04'0 0.0
2015-Mar-26 15:33N 49°17' W 123°04'0 0.0
2015-Mar-26 14:33N 49°17' W 123°04'1 0.8
2015-Mar-26 13:33N 49°17' W 123°05'1 0.5
2015-Mar-26 12:33N 49°18' W 123°04'0 0.4
2015-Mar-26 11:33N 49°17' W 123°04'0 0.0
2015-Mar-26 10:33N 49°17' W 123°04'0 0.0
2015-Mar-26 09:33N 49°17' W 123°04'0 0.0
2015-Mar-26 08:34N 49°17' W 123°04'0 0.0
2015-Mar-26 07:33N 49°17' W 123°04'0 0.0
2015-Mar-26 06:33N 49°17' W 123°04'1 1.5
2015-Mar-26 05:33N 49°17' W 123°06'0 0.4
2015-Mar-26 04:33N 49°18' W 123°06'1 1.3
2015-Mar-26 03:33N 49°17' W 123°04'0 0.2
2015-Mar-26 02:33N 49°17' W 123°04'0 0.0
2015-Mar-26 01:33N 49°17' W 123°04'0 0.0
2015-Mar-26 00:33N 49°17' W 123°04'0 0.0
2015-Mar-25 23:33N 49°17' W 123°04'0 0.0
2015-Mar-25 22:34N 49°17' W 123°04'0 0.0
2015-Mar-25 21:33N 49°17' W 123°04'0 0.0
2015-Mar-25 20:34N 49°17' W 123°04'0 0.0
2015-Mar-25 19:33N 49°17' W 123°04'0 0.0
2015-Mar-25 18:33N 49°17' W 123°04'0 0.0
2015-Mar-25 17:33N 49°17' W 123°04'0 0.0
2015-Mar-25 16:34N 49°17' W 123°04'0 0.0
2015-Mar-25 15:33N 49°17' W 123°04'0 0.0
2015-Mar-25 14:33N 49°17' W 123°04'0 0.0
2015-Mar-25 13:33N 49°17' W 123°04'0 0.0
2015-Mar-25 12:33N 49°17' W 123°04'0 0.0
2015-Mar-25 11:33N 49°17' W 123°04'0 0.0
2015-Mar-25 10:33N 49°17' W 123°04'0 0.0
2015-Mar-25 09:33N 49°17' W 123°04'0 0.0
2015-Mar-25 08:33N 49°17' W 123°04'2 2.4
2015-Mar-25 07:33N 49°18' W 123°07'0 0.1
2015-Mar-25 06:33N 49°19' W 123°07'2 2.5
2015-Mar-25 05:33N 49°17' W 123°04'0 0.0
2015-Mar-25 04:33N 49°17' W 123°04'0 0.0
2015-Mar-25 03:33N 49°17' W 123°04'1 1.4
2015-Mar-25 02:33N 49°17' W 123°06'1 0.9
2015-Mar-25 01:33N 49°18' W 123°06'2 2.0
2015-Mar-25 00:33N 49°17' W 123°04'0 0.0
2015-Mar-24 23:33N 49°17' W 123°04'0 0.0
2015-Mar-24 22:33N 49°17' W 123°04'0 0.0
2015-Mar-24 21:33N 49°17' W 123°04'1 0.8
2015-Mar-24 20:33N 49°18' W 123°04'1 1.1
2015-Mar-24 19:33N 49°18' W 123°05'1 1.0
2015-Mar-24 18:33N 49°17' W 123°04'0 0.0
2015-Mar-24 17:33N 49°17' W 123°04'0 0.0
2015-Mar-24 16:33N 49°17' W 123°04'0 0.0
2015-Mar-24 15:33N 49°17' W 123°04'0 0.0
2015-Mar-24 14:33N 49°17' W 123°04'0 0.0
2015-Mar-24 13:34N 49°17' W 123°04'0 0.0
2015-Mar-24 12:33N 49°17' W 123°04'0 0.0
2015-Mar-24 11:33N 49°17' W 123°04'0 0.0
2015-Mar-24 10:33N 49°17' W 123°04'0 0.0
2015-Mar-24 09:33N 49°17' W 123°04'0 0.0
2015-Mar-24 08:33N 49°17' W 123°04'0 0.0
2015-Mar-24 07:33N 49°17' W 123°04'0 0.0
2015-Mar-24 06:33N 49°17' W 123°04'0 0.0
2015-Mar-24 05:33N 49°17' W 123°04'0 0.0
2015-Mar-24 04:33N 49°17' W 123°04'0 0.0
2015-Mar-24 03:33N 49°17' W 123°04'0 0.0
2015-Mar-24 02:33N 49°17' W 123°04'0 0.0
2015-Mar-24 01:33N 49°17' W 123°04'0 0.0
2015-Mar-24 00:33N 49°17' W 123°04'0 0.0
2015-Mar-23 23:33N 49°17' W 123°04'1 0.6
2015-Mar-23 22:34N 49°17' W 123°05'1 0.6
2015-Mar-23 21:33N 49°17' W 123°04'0 0.0
2015-Mar-23 20:33N 49°17' W 123°04'0 0.0
2015-Mar-23 19:33N 49°17' W 123°04'0 0.0
2015-Mar-23 18:33N 49°17' W 123°04'3 2.7
2015-Mar-23 17:33N 49°18' W 123°08'8 8.1
2015-Mar-23 16:33N 49°23' W 123°18'1110.0
2015-Mar-23 15:28N 49°34' W 123°15'8 1.7
2015-Mar-23 10:32N 49°26' W 123°18'8 7.8
2015-Mar-23 09:33N 49°19' W 123°11'5 5.0
2015-Mar-23 08:33N 49°17' W 123°04'0 0.0
2015-Mar-23 07:33N 49°17' W 123°04'0 0.0
2015-Mar-23 06:33N 49°17' W 123°04'0 0.0
2015-Mar-23 05:33N 49°17' W 123°04'0 0.0
2015-Mar-23 04:33N 49°17' W 123°04'9 8.5
2015-Mar-23 03:33N 49°20' W 123°16'9 8.6
2015-Mar-23 02:33N 49°28' W 123°17'5 1.3
2015-Mar-22 22:29N 49°33' W 123°16'8 8.8
2015-Mar-22 21:32N 49°25' W 123°18'7 7.5
2015-Mar-22 20:33N 49°19' W 123°11'5 5.0
2015-Mar-22 19:33N 49°17' W 123°04'0 0.0
2015-Mar-22 18:33N 49°17' W 123°04'0 0.0
2015-Mar-22 17:33N 49°17' W 123°04'0 0.0
2015-Mar-22 16:33N 49°17' W 123°04'0 0.0
2015-Mar-22 15:33N 49°17' W 123°04'0 0.0
2015-Mar-22 14:33N 49°17' W 123°04'0 0.0
2015-Mar-22 13:33N 49°17' W 123°04'0 0.0
2015-Mar-22 12:33N 49°17' W 123°04'0 0.0
2015-Mar-22 11:33N 49°17' W 123°04'0 0.0
2015-Mar-22 10:33N 49°17' W 123°04'0 0.0
2015-Mar-22 09:33N 49°17' W 123°04'0 0.0
2015-Mar-22 08:33N 49°17' W 123°04'0 0.0
2015-Mar-22 07:33N 49°17' W 123°04'0 0.0
2015-Mar-22 06:33N 49°17' W 123°04'0 0.0
2015-Mar-22 05:33N 49°17' W 123°04'0 0.0
2015-Mar-22 04:33N 49°17' W 123°04'0 0.0
2015-Mar-22 03:33N 49°17' W 123°04'0 0.0
2015-Mar-22 02:33N 49°17' W 123°04'0 0.0
2015-Mar-22 01:33N 49°17' W 123°04'0 0.0
2015-Mar-22 00:33N 49°17' W 123°04'0 0.0
2015-Mar-21 23:33N 49°17' W 123°04'0 0.2
2015-Mar-21 22:33N 49°18' W 123°04'2 2.1
2015-Mar-21 21:33N 49°18' W 123°07'2 2.4
2015-Mar-21 20:33N 49°17' W 123°04'0 0.0
2015-Mar-21 19:33N 49°17' W 123°04'0 0.0
2015-Mar-21 18:33N 49°17' W 123°04'0 0.0
2015-Mar-21 17:33N 49°17' W 123°04'0 0.0
2015-Mar-21 16:33N 49°17' W 123°04'0 0.0
2015-Mar-21 15:33N 49°17' W 123°04'0 0.0
2015-Mar-21 14:33N 49°17' W 123°04'0 0.0
2015-Mar-21 13:33N 49°17' W 123°04'0 0.0
2015-Mar-21 12:33N 49°17' W 123°04'0 0.0
2015-Mar-21 11:33N 49°17' W 123°04'0 0.0
2015-Mar-21 10:33N 49°17' W 123°04'0 0.0
2015-Mar-21 09:33N 49°17' W 123°04'0 0.0
2015-Mar-21 08:33N 49°17' W 123°04'0 0.0
2015-Mar-21 07:33N 49°17' W 123°04'0 0.0
2015-Mar-21 06:33N 49°17' W 123°04'0 0.0
2015-Mar-21 05:33N 49°17' W 123°04'0 0.0
2015-Mar-21 04:33N 49°17' W 123°04'0 0.0
2015-Mar-21 03:33N 49°17' W 123°04'0 0.0
2015-Mar-21 02:33N 49°17' W 123°04'0 0.0
2015-Mar-21 01:33N 49°17' W 123°04'0 0.0
2015-Mar-21 00:33N 49°17' W 123°04'2 1.5
2015-Mar-20 23:33N 49°17' W 123°06'0 0.3
2015-Mar-20 22:33N 49°18' W 123°06'1 1.0
2015-Mar-20 21:33N 49°19' W 123°07'3 2.7
2015-Mar-20 20:33N 49°18' W 123°03'  
Track history (hours):
 
Tides and Currents Weather Stations Pressure Air Temp Water Temp Dewpoint Dewpoint Depression Visibility Wind Speed Wind Dir Waves Ship Positions

Smit Orleans

Last reported at 2015-Mar-30 19:33 UTC. Time now 2015-Mar-30 20:05 UTC.
Position N 49°17' W 123°04'.

Length 29 m; draft 5.1 m.

Type: . MMSI: 316012721.

Date/timePositionNaut miles runAvg speedWind from/ knotsBaromVisibWave heightAir tempDewpointWater temp
2015-Mar-30 19:33N 49°17' W 123°04'0 0.0
2015-Mar-30 18:33N 49°17' W 123°04'0 0.0
2015-Mar-30 17:33N 49°17' W 123°04'0 0.0
2015-Mar-30 16:33N 49°17' W 123°04'0 0.0
2015-Mar-30 15:33N 49°17' W 123°04'0 0.0
2015-Mar-30 14:33N 49°17' W 123°04'0 0.0
2015-Mar-30 13:33N 49°17' W 123°04'0 0.0
2015-Mar-30 12:33N 49°17' W 123°04'0 0.0
2015-Mar-30 11:33N 49°17' W 123°04'0 0.0
2015-Mar-30 10:33N 49°17' W 123°04'0 0.0
2015-Mar-30 09:33N 49°17' W 123°04'0 0.0
2015-Mar-30 08:33N 49°17' W 123°04'0 0.0
2015-Mar-30 07:33N 49°17' W 123°04'0 0.0
2015-Mar-30 06:33N 49°17' W 123°04'0 0.0
2015-Mar-30 05:33N 49°17' W 123°04'0 0.0
2015-Mar-30 04:33N 49°17' W 123°04'0 0.0
2015-Mar-30 03:33N 49°17' W 123°04'0 0.0
2015-Mar-30 02:33N 49°17' W 123°04'0 0.0
2015-Mar-30 01:33N 49°17' W 123°04'0 0.0
2015-Mar-30 00:33N 49°17' W 123°04'0 0.0
2015-Mar-29 23:33N 49°17' W 123°04'0 0.0
2015-Mar-29 22:33N 49°17' W 123°04'0 0.0
2015-Mar-29 21:33N 49°17' W 123°04'0 0.0
2015-Mar-29 20:33N 49°17' W 123°04'1 0.8
2015-Mar-29 19:33N 49°18' W 123°03'0 0.1
2015-Mar-29 18:33N 49°18' W 123°03'0 0.0
2015-Mar-29 17:33N 49°18' W 123°03'1 0.8
2015-Mar-29 16:33N 49°17' W 123°04'0 0.0
2015-Mar-29 15:34N 49°17' W 123°04'0 0.0
2015-Mar-29 14:33N 49°17' W 123°04'0 0.0
2015-Mar-29 13:33N 49°17' W 123°04'0 0.0
2015-Mar-29 12:33N 49°17' W 123°04'0 0.0
2015-Mar-29 11:33N 49°17' W 123°04'0 0.0
2015-Mar-29 10:33N 49°17' W 123°04'0 0.0
2015-Mar-29 09:33N 49°17' W 123°04'0 0.0
2015-Mar-29 08:33N 49°17' W 123°04'0 0.0
2015-Mar-29 07:33N 49°17' W 123°04'0 0.0
2015-Mar-29 06:33N 49°17' W 123°04'9 8.6
2015-Mar-29 05:33N 49°18' W 123°17'1312.7
2015-Mar-29 04:33N 49°05' W 123°20'1212.1
2015-Mar-29 03:33N 48°53' W 123°18'1110.8
2015-Mar-29 02:31N 48°42' W 123°16'1111.8
2015-Mar-29 01:33N 48°31' W 123°11'10 9.8
2015-Mar-29 00:33N 48°22' W 123°16'7 7.3
2015-Mar-28 23:33N 48°20' W 123°27'1010.4
2015-Mar-28 22:33N 48°25' W 123°13'1211.8
2015-Mar-28 21:33N 48°36' W 123°14'9 9.2
2015-Mar-28 20:33N 48°45' W 123°08'7 7.3
2015-Mar-28 19:33N 48°52' W 123°05'9 8.5
2015-Mar-28 18:33N 48°58' W 123°14'1212.1
2015-Mar-28 17:33N 49°09' W 123°19'1111.2
2015-Mar-28 16:33N 49°19' W 123°10'6 5.9
2015-Mar-28 15:33N 49°18' W 123°01'3 2.9
2015-Mar-28 14:34N 49°18' W 122°57'1 0.7
2015-Mar-28 13:33N 49°18' W 122°58'4 3.9
2015-Mar-28 12:33N 49°17' W 123°04'0 0.0
2015-Mar-28 11:34N 49°17' W 123°04'0 0.0
2015-Mar-28 10:33N 49°17' W 123°04'0 0.0
2015-Mar-28 09:33N 49°17' W 123°04'0 0.0
2015-Mar-28 08:33N 49°17' W 123°04'0 0.0
2015-Mar-28 07:34N 49°17' W 123°04'0 0.0
2015-Mar-28 06:33N 49°17' W 123°04'0 0.0
2015-Mar-28 05:34N 49°17' W 123°04'0 0.0
2015-Mar-28 04:34N 49°17' W 123°04'0 0.0
2015-Mar-28 03:33N 49°17' W 123°04'0 0.0
2015-Mar-28 02:33N 49°17' W 123°04'0 0.0
2015-Mar-28 01:33N 49°17' W 123°04'0 0.0
2015-Mar-28 00:33N 49°17' W 123°04'1 1.1
2015-Mar-27 23:33N 49°18' W 123°02'1 1.1
2015-Mar-27 22:33N 49°18' W 123°04'2 2.2
2015-Mar-27 21:33N 49°18' W 123°07'0 0.0
2015-Mar-27 20:33N 49°18' W 123°07'0 0.0
2015-Mar-27 19:33N 49°18' W 123°07'1 1.2
2015-Mar-27 18:33N 49°18' W 123°05'2 1.5
2015-Mar-27 17:33N 49°18' W 123°07'0 0.0
2015-Mar-27 16:33N 49°18' W 123°07'0 0.0
2015-Mar-27 15:33N 49°18' W 123°07'2 2.4
2015-Mar-27 14:33N 49°17' W 123°04'0 0.0
2015-Mar-27 13:33N 49°17' W 123°04'0 0.0
2015-Mar-27 12:33N 49°17' W 123°04'0 0.0
2015-Mar-27 11:33N 49°17' W 123°04'0 0.0
2015-Mar-27 10:33N 49°17' W 123°04'0 0.0
2015-Mar-27 09:33N 49°17' W 123°04'0 0.0
2015-Mar-27 08:33N 49°17' W 123°04'0 0.0
2015-Mar-27 07:33N 49°17' W 123°04'0 0.0
2015-Mar-27 06:33N 49°17' W 123°04'0 0.0
2015-Mar-27 05:33N 49°17' W 123°04'0 0.0
2015-Mar-27 04:34N 49°17' W 123°04'0 0.0
2015-Mar-27 03:33N 49°17' W 123°04'0 0.0
2015-Mar-27 02:33N 49°17' W 123°04'1 0.8
2015-Mar-27 01:33N 49°18' W 123°03'0 0.3
2015-Mar-27 00:33N 49°18' W 123°04'1 0.7
2015-Mar-26 23:33N 49°17' W 123°04'0 0.0
2015-Mar-26 22:33N 49°17' W 123°04'0 0.5
2015-Mar-26 21:33N 49°17' W 123°04'0 0.5
2015-Mar-26 20:33N 49°17' W 123°04'0 0.0
2015-Mar-26 19:33N 49°17' W 123°04'0 0.0
2015-Mar-26 18:33N 49°17' W 123°04'0 0.0
2015-Mar-26 17:33N 49°17' W 123°04'0 0.0
2015-Mar-26 16:34N 49°17' W 123°04'0 0.0
2015-Mar-26 15:33N 49°17' W 123°04'0 0.0
2015-Mar-26 14:33N 49°17' W 123°04'1 0.8
2015-Mar-26 13:33N 49°17' W 123°05'1 0.5
2015-Mar-26 12:33N 49°18' W 123°04'0 0.4
2015-Mar-26 11:33N 49°17' W 123°04'0 0.0
2015-Mar-26 10:33N 49°17' W 123°04'0 0.0
2015-Mar-26 09:33N 49°17' W 123°04'0 0.0
2015-Mar-26 08:34N 49°17' W 123°04'0 0.0
2015-Mar-26 07:33N 49°17' W 123°04'0 0.0
2015-Mar-26 06:33N 49°17' W 123°04'1 1.5
2015-Mar-26 05:33N 49°17' W 123°06'0 0.4
2015-Mar-26 04:33N 49°18' W 123°06'1 1.3
2015-Mar-26 03:33N 49°17' W 123°04'0 0.2
2015-Mar-26 02:33N 49°17' W 123°04'0 0.0
2015-Mar-26 01:33N 49°17' W 123°04'0 0.0
2015-Mar-26 00:33N 49°17' W 123°04'0 0.0
2015-Mar-25 23:33N 49°17' W 123°04'0 0.0
2015-Mar-25 22:34N 49°17' W 123°04'0 0.0
2015-Mar-25 21:33N 49°17' W 123°04'0 0.0
2015-Mar-25 20:34N 49°17' W 123°04'0 0.0
2015-Mar-25 19:33N 49°17' W 123°04'0 0.0
2015-Mar-25 18:33N 49°17' W 123°04'0 0.0
2015-Mar-25 17:33N 49°17' W 123°04'0 0.0
2015-Mar-25 16:34N 49°17' W 123°04'0 0.0
2015-Mar-25 15:33N 49°17' W 123°04'0 0.0
2015-Mar-25 14:33N 49°17' W 123°04'0 0.0
2015-Mar-25 13:33N 49°17' W 123°04'0 0.0
2015-Mar-25 12:33N 49°17' W 123°04'0 0.0
2015-Mar-25 11:33N 49°17' W 123°04'0 0.0
2015-Mar-25 10:33N 49°17' W 123°04'0 0.0
2015-Mar-25 09:33N 49°17' W 123°04'0 0.0
2015-Mar-25 08:33N 49°17' W 123°04'2 2.4
2015-Mar-25 07:33N 49°18' W 123°07'0 0.1
2015-Mar-25 06:33N 49°19' W 123°07'2 2.5
2015-Mar-25 05:33N 49°17' W 123°04'0 0.0
2015-Mar-25 04:33N 49°17' W 123°04'0 0.0
2015-Mar-25 03:33N 49°17' W 123°04'1 1.4
2015-Mar-25 02:33N 49°17' W 123°06'1 0.9
2015-Mar-25 01:33N 49°18' W 123°06'2 2.0
2015-Mar-25 00:33N 49°17' W 123°04'0 0.0
2015-Mar-24 23:33N 49°17' W 123°04'0 0.0
2015-Mar-24 22:33N 49°17' W 123°04'0 0.0
2015-Mar-24 21:33N 49°17' W 123°04'1 0.8
2015-Mar-24 20:33N 49°18' W 123°04'1 1.1
2015-Mar-24 19:33N 49°18' W 123°05'1 1.0
2015-Mar-24 18:33N 49°17' W 123°04'0 0.0
2015-Mar-24 17:33N 49°17' W 123°04'0 0.0
2015-Mar-24 16:33N 49°17' W 123°04'0 0.0
2015-Mar-24 15:33N 49°17' W 123°04'0 0.0
2015-Mar-24 14:33N 49°17' W 123°04'0 0.0
2015-Mar-24 13:34N 49°17' W 123°04'0 0.0
2015-Mar-24 12:33N 49°17' W 123°04'0 0.0
2015-Mar-24 11:33N 49°17' W 123°04'0 0.0
2015-Mar-24 10:33N 49°17' W 123°04'0 0.0
2015-Mar-24 09:33N 49°17' W 123°04'0 0.0
2015-Mar-24 08:33N 49°17' W 123°04'0 0.0
2015-Mar-24 07:33N 49°17' W 123°04'0 0.0
2015-Mar-24 06:33N 49°17' W 123°04'0 0.0
2015-Mar-24 05:33N 49°17' W 123°04'0 0.0
2015-Mar-24 04:33N 49°17' W 123°04'0 0.0
2015-Mar-24 03:33N 49°17' W 123°04'0 0.0
2015-Mar-24 02:33N 49°17' W 123°04'0 0.0
2015-Mar-24 01:33N 49°17' W 123°04'0 0.0
2015-Mar-24 00:33N 49°17' W 123°04'0 0.0
2015-Mar-23 23:33N 49°17' W 123°04'1 0.6
2015-Mar-23 22:34N 49°17' W 123°05'1 0.6
2015-Mar-23 21:33N 49°17' W 123°04'0 0.0
2015-Mar-23 20:33N 49°17' W 123°04'0 0.0
2015-Mar-23 19:33N 49°17' W 123°04'0 0.0
2015-Mar-23 18:33N 49°17' W 123°04'3 2.7
2015-Mar-23 17:33N 49°18' W 123°08'8 8.1
2015-Mar-23 16:33N 49°23' W 123°18'1110.0
2015-Mar-23 15:28N 49°34' W 123°15'8 1.7
2015-Mar-23 10:32N 49°26' W 123°18'8 7.8
2015-Mar-23 09:33N 49°19' W 123°11'5 5.0
2015-Mar-23 08:33N 49°17' W 123°04'0 0.0
2015-Mar-23 07:33N 49°17' W 123°04'0 0.0
2015-Mar-23 06:33N 49°17' W 123°04'0 0.0
2015-Mar-23 05:33N 49°17' W 123°04'0 0.0
2015-Mar-23 04:33N 49°17' W 123°04'9 8.5
2015-Mar-23 03:33N 49°20' W 123°16'9 8.6
2015-Mar-23 02:33N 49°28' W 123°17'5 1.3
2015-Mar-22 22:29N 49°33' W 123°16'8 8.8
2015-Mar-22 21:32N 49°25' W 123°18'7 7.5
2015-Mar-22 20:33N 49°19' W 123°11'5 5.0
2015-Mar-22 19:33N 49°17' W 123°04'0 0.0
2015-Mar-22 18:33N 49°17' W 123°04'0 0.0
2015-Mar-22 17:33N 49°17' W 123°04'0 0.0
2015-Mar-22 16:33N 49°17' W 123°04'0 0.0
2015-Mar-22 15:33N 49°17' W 123°04'0 0.0
2015-Mar-22 14:33N 49°17' W 123°04'0 0.0
2015-Mar-22 13:33N 49°17' W 123°04'0 0.0
2015-Mar-22 12:33N 49°17' W 123°04'0 0.0
2015-Mar-22 11:33N 49°17' W 123°04'0 0.0
2015-Mar-22 10:33N 49°17' W 123°04'0 0.0
2015-Mar-22 09:33N 49°17' W 123°04'0 0.0
2015-Mar-22 08:33N 49°17' W 123°04'0 0.0
2015-Mar-22 07:33N 49°17' W 123°04'0 0.0
2015-Mar-22 06:33N 49°17' W 123°04'0 0.0
2015-Mar-22 05:33N 49°17' W 123°04'0 0.0
2015-Mar-22 04:33N 49°17' W 123°04'0 0.0
2015-Mar-22 03:33N 49°17' W 123°04'0 0.0
2015-Mar-22 02:33N 49°17' W 123°04'0 0.0
2015-Mar-22 01:33N 49°17' W 123°04'0 0.0
2015-Mar-22 00:33N 49°17' W 123°04'0 0.0
2015-Mar-21 23:33N 49°17' W 123°04'0 0.2
2015-Mar-21 22:33N 49°18' W 123°04'2 2.1
2015-Mar-21 21:33N 49°18' W 123°07'2 2.4
2015-Mar-21 20:33N 49°17' W 123°04'0 0.0
2015-Mar-21 19:33N 49°17' W 123°04'0 0.0
2015-Mar-21 18:33N 49°17' W 123°04'0 0.0
2015-Mar-21 17:33N 49°17' W 123°04'0 0.0
2015-Mar-21 16:33N 49°17' W 123°04'0 0.0
2015-Mar-21 15:33N 49°17' W 123°04'0 0.0
2015-Mar-21 14:33N 49°17' W 123°04'0 0.0
2015-Mar-21 13:33N 49°17' W 123°04'0 0.0
2015-Mar-21 12:33N 49°17' W 123°04'0 0.0
2015-Mar-21 11:33N 49°17' W 123°04'0 0.0
2015-Mar-21 10:33N 49°17' W 123°04'0 0.0
2015-Mar-21 09:33N 49°17' W 123°04'0 0.0
2015-Mar-21 08:33N 49°17' W 123°04'0 0.0
2015-Mar-21 07:33N 49°17' W 123°04'0 0.0
2015-Mar-21 06:33N 49°17' W 123°04'0 0.0
2015-Mar-21 05:33N 49°17' W 123°04'0 0.0
2015-Mar-21 04:33N 49°17' W 123°04'0 0.0
2015-Mar-21 03:33N 49°17' W 123°04'0 0.0
2015-Mar-21 02:33N 49°17' W 123°04'0 0.0
2015-Mar-21 01:33N 49°17' W 123°04'0 0.0
2015-Mar-21 00:33N 49°17' W 123°04'2 1.5
2015-Mar-20 23:33N 49°17' W 123°06'0 0.3
2015-Mar-20 22:33N 49°18' W 123°06'1 1.0
2015-Mar-20 21:33N 49°19' W 123°07'3 2.7
2015-Mar-20 20:33N 49°18' W 123°03'  

Dump ship's entire track history